sensor_id;sensor_type;location;lat;lon;timestamp;P1;durP1;ratioP1;P2;durP2;ratioP2
11054;SDS011;5580;50.106;8.702;2023-03-11T00:01:38;3.83;;;3.30;;
11054;SDS011;5580;50.106;8.702;2023-03-11T00:04:05;3.23;;;2.93;;
11054;SDS011;5580;50.106;8.702;2023-03-11T00:06:30;3.43;;;3.13;;
11054;SDS011;5580;50.106;8.702;2023-03-11T00:08:58;4.83;;;2.90;;
11054;SDS011;5580;50.106;8.702;2023-03-11T00:11:24;3.40;;;3.10;;
11054;SDS011;5580;50.106;8.702;2023-03-11T00:13:49;4.57;;;3.13;;
11054;SDS011;5580;50.106;8.702;2023-03-11T00:16:15;3.20;;;3.00;;
11054;SDS011;5580;50.106;8.702;2023-03-11T00:18:41;3.43;;;3.13;;
11054;SDS011;5580;50.106;8.702;2023-03-11T00:21:11;3.80;;;3.50;;
11054;SDS011;5580;50.106;8.702;2023-03-11T00:23:41;3.73;;;3.10;;
11054;SDS011;5580;50.106;8.702;2023-03-11T00:26:06;4.07;;;3.20;;
11054;SDS011;5580;50.106;8.702;2023-03-11T00:28:32;4.47;;;3.30;;
11054;SDS011;5580;50.106;8.702;2023-03-11T00:30:57;5.00;;;3.50;;
11054;SDS011;5580;50.106;8.702;2023-03-11T00:33:23;5.33;;;3.10;;
11054;SDS011;5580;50.106;8.702;2023-03-11T00:35:49;2.90;;;2.70;;
11054;SDS011;5580;50.106;8.702;2023-03-11T00:38:15;4.63;;;2.90;;
11054;SDS011;5580;50.106;8.702;2023-03-11T00:40:42;2.70;;;2.50;;
11054;SDS011;5580;50.106;8.702;2023-03-11T00:43:08;3.33;;;2.37;;
11054;SDS011;5580;50.106;8.702;2023-03-11T00:45:34;2.83;;;2.60;;
11054;SDS011;5580;50.106;8.702;2023-03-11T00:48:00;4.10;;;2.90;;
11054;SDS011;5580;50.106;8.702;2023-03-11T00:50:30;3.17;;;2.50;;
11054;SDS011;5580;50.106;8.702;2023-03-11T00:52:57;3.10;;;2.70;;
11054;SDS011;5580;50.106;8.702;2023-03-11T00:55:25;4.47;;;2.63;;
11054;SDS011;5580;50.106;8.702;2023-03-11T00:57:56;3.50;;;2.30;;
11054;SDS011;5580;50.106;8.702;2023-03-11T01:00:24;4.63;;;2.93;;
11054;SDS011;5580;50.106;8.702;2023-03-11T01:02:50;3.23;;;2.60;;
11054;SDS011;5580;50.106;8.702;2023-03-11T01:05:19;4.17;;;2.60;;
11054;SDS011;5580;50.106;8.702;2023-03-11T01:07:46;4.83;;;2.90;;
11054;SDS011;5580;50.106;8.702;2023-03-11T01:10:11;3.17;;;2.83;;
11054;SDS011;5580;50.106;8.702;2023-03-11T01:12:37;4.00;;;2.97;;
11054;SDS011;5580;50.106;8.702;2023-03-11T01:15:03;4.80;;;2.80;;
11054;SDS011;5580;50.106;8.702;2023-03-11T01:17:30;7.30;;;2.93;;
11054;SDS011;5580;50.106;8.702;2023-03-11T01:19:55;6.20;;;2.87;;
11054;SDS011;5580;50.106;8.702;2023-03-11T01:22:21;5.63;;;2.70;;
11054;SDS011;5580;50.106;8.702;2023-03-11T01:24:46;5.33;;;2.63;;
11054;SDS011;5580;50.106;8.702;2023-03-11T01:27:12;2.93;;;2.60;;
11054;SDS011;5580;50.106;8.702;2023-03-11T01:29:37;4.50;;;2.60;;
11054;SDS011;5580;50.106;8.702;2023-03-11T01:32:03;2.50;;;2.30;;
11054;SDS011;5580;50.106;8.702;2023-03-11T01:34:29;5.07;;;2.77;;
11054;SDS011;5580;50.106;8.702;2023-03-11T01:36:55;5.00;;;2.73;;
11054;SDS011;5580;50.106;8.702;2023-03-11T01:39:20;3.37;;;2.70;;
11054;SDS011;5580;50.106;8.702;2023-03-11T01:41:46;4.23;;;2.67;;
11054;SDS011;5580;50.106;8.702;2023-03-11T01:44:11;5.53;;;2.80;;
11054;SDS011;5580;50.106;8.702;2023-03-11T01:49:18;5.97;;;2.70;;
11054;SDS011;5580;50.106;8.702;2023-03-11T01:51:46;4.53;;;2.70;;
11054;SDS011;5580;50.106;8.702;2023-03-11T01:54:17;3.30;;;2.80;;
11054;SDS011;5580;50.106;8.702;2023-03-11T01:56:52;5.97;;;3.10;;
11054;SDS011;5580;50.106;8.702;2023-03-11T01:59:23;5.13;;;3.00;;
11054;SDS011;5580;50.106;8.702;2023-03-11T02:04:44;5.93;;;3.10;;
11054;SDS011;5580;50.106;8.702;2023-03-11T02:07:10;4.07;;;2.93;;
11054;SDS011;5580;50.106;8.702;2023-03-11T02:09:37;7.30;;;3.40;;
11054;SDS011;5580;50.106;8.702;2023-03-11T02:12:03;6.43;;;3.23;;
11054;SDS011;5580;50.106;8.702;2023-03-11T02:14:31;6.47;;;3.17;;
11054;SDS011;5580;50.106;8.702;2023-03-11T02:16:57;5.33;;;3.37;;
11054;SDS011;5580;50.106;8.702;2023-03-11T02:19:37;5.63;;;3.33;;
11054;SDS011;5580;50.106;8.702;2023-03-11T02:22:26;5.87;;;3.10;;
11054;SDS011;5580;50.106;8.702;2023-03-11T02:27:24;5.00;;;2.93;;
11054;SDS011;5580;50.106;8.702;2023-03-11T02:29:51;9.90;;;3.47;;
11054;SDS011;5580;50.106;8.702;2023-03-11T02:32:18;6.13;;;3.30;;
11054;SDS011;5580;50.106;8.702;2023-03-11T02:34:44;6.87;;;3.47;;
11054;SDS011;5580;50.106;8.702;2023-03-11T02:37:11;4.00;;;3.13;;
11054;SDS011;5580;50.106;8.702;2023-03-11T02:39:39;3.93;;;2.90;;
11054;SDS011;5580;50.106;8.702;2023-03-11T02:42:09;8.97;;;3.47;;
11054;SDS011;5580;50.106;8.702;2023-03-11T02:44:36;6.60;;;3.40;;
11054;SDS011;5580;50.106;8.702;2023-03-11T02:47:03;4.33;;;3.07;;
11054;SDS011;5580;50.106;8.702;2023-03-11T02:49:29;5.83;;;3.27;;
11054;SDS011;5580;50.106;8.702;2023-03-11T02:51:55;5.20;;;2.80;;
11054;SDS011;5580;50.106;8.702;2023-03-11T02:54:20;5.70;;;3.00;;
11054;SDS011;5580;50.106;8.702;2023-03-11T02:56:46;7.03;;;2.93;;
11054;SDS011;5580;50.106;8.702;2023-03-11T02:59:12;6.67;;;3.67;;
11054;SDS011;5580;50.106;8.702;2023-03-11T03:01:37;6.80;;;3.20;;
11054;SDS011;5580;50.106;8.702;2023-03-11T03:04:03;5.97;;;3.53;;
11054;SDS011;5580;50.106;8.702;2023-03-11T03:06:28;5.53;;;3.23;;
11054;SDS011;5580;50.106;8.702;2023-03-11T03:08:54;6.67;;;3.60;;
11054;SDS011;5580;50.106;8.702;2023-03-11T03:11:20;6.53;;;3.13;;
11054;SDS011;5580;50.106;8.702;2023-03-11T03:13:45;6.10;;;3.10;;
11054;SDS011;5580;50.106;8.702;2023-03-11T03:16:11;6.67;;;3.03;;
11054;SDS011;5580;50.106;8.702;2023-03-11T03:18:37;5.67;;;3.30;;
11054;SDS011;5580;50.106;8.702;2023-03-11T03:21:03;5.53;;;3.23;;
11054;SDS011;5580;50.106;8.702;2023-03-11T03:23:28;4.70;;;2.90;;
11054;SDS011;5580;50.106;8.702;2023-03-11T03:25:59;6.07;;;2.67;;
11054;SDS011;5580;50.106;8.702;2023-03-11T03:28:25;6.13;;;3.20;;
11054;SDS011;5580;50.106;8.702;2023-03-11T03:30:51;7.00;;;3.23;;
11054;SDS011;5580;50.106;8.702;2023-03-11T03:33:16;7.43;;;2.90;;
11054;SDS011;5580;50.106;8.702;2023-03-11T03:35:43;8.00;;;3.20;;
11054;SDS011;5580;50.106;8.702;2023-03-11T03:38:09;6.57;;;3.27;;
11054;SDS011;5580;50.106;8.702;2023-03-11T03:40:35;7.33;;;3.00;;
11054;SDS011;5580;50.106;8.702;2023-03-11T03:43:00;4.80;;;3.00;;
11054;SDS011;5580;50.106;8.702;2023-03-11T03:45:26;8.30;;;3.40;;
11054;SDS011;5580;50.106;8.702;2023-03-11T03:47:52;8.27;;;3.33;;
11054;SDS011;5580;50.106;8.702;2023-03-11T03:50:17;5.73;;;2.97;;
11054;SDS011;5580;50.106;8.702;2023-03-11T03:52:43;5.40;;;3.33;;
11054;SDS011;5580;50.106;8.702;2023-03-11T03:55:09;6.67;;;3.40;;
11054;SDS011;5580;50.106;8.702;2023-03-11T03:57:35;7.80;;;3.23;;
11054;SDS011;5580;50.106;8.702;2023-03-11T04:00:00;4.17;;;3.23;;
11054;SDS011;5580;50.106;8.702;2023-03-11T04:02:26;5.23;;;3.30;;
11054;SDS011;5580;50.106;8.702;2023-03-11T04:04:52;8.80;;;3.40;;
11054;SDS011;5580;50.106;8.702;2023-03-11T04:07:17;6.37;;;3.40;;
11054;SDS011;5580;50.106;8.702;2023-03-11T04:09:43;5.23;;;3.13;;
11054;SDS011;5580;50.106;8.702;2023-03-11T04:12:11;8.90;;;4.20;;
11054;SDS011;5580;50.106;8.702;2023-03-11T04:14:39;6.10;;;3.77;;
11054;SDS011;5580;50.106;8.702;2023-03-11T04:17:05;8.20;;;3.50;;
11054;SDS011;5580;50.106;8.702;2023-03-11T04:19:31;6.47;;;3.57;;
11054;SDS011;5580;50.106;8.702;2023-03-11T04:21:56;7.47;;;3.80;;
11054;SDS011;5580;50.106;8.702;2023-03-11T04:24:22;8.47;;;3.90;;
11054;SDS011;5580;50.106;8.702;2023-03-11T04:26:48;6.30;;;3.73;;
11054;SDS011;5580;50.106;8.702;2023-03-11T04:29:13;5.90;;;3.83;;
11054;SDS011;5580;50.106;8.702;2023-03-11T04:31:39;6.90;;;3.80;;
11054;SDS011;5580;50.106;8.702;2023-03-11T04:34:04;5.60;;;3.57;;
11054;SDS011;5580;50.106;8.702;2023-03-11T04:36:30;6.37;;;3.73;;
11054;SDS011;5580;50.106;8.702;2023-03-11T04:38:56;8.37;;;3.73;;
11054;SDS011;5580;50.106;8.702;2023-03-11T04:41:21;8.83;;;3.97;;
11054;SDS011;5580;50.106;8.702;2023-03-11T04:43:47;10.37;;;4.20;;
11054;SDS011;5580;50.106;8.702;2023-03-11T04:46:13;5.97;;;3.80;;
11054;SDS011;5580;50.106;8.702;2023-03-11T04:48:38;8.70;;;4.07;;
11054;SDS011;5580;50.106;8.702;2023-03-11T04:51:04;8.43;;;3.90;;
11054;SDS011;5580;50.106;8.702;2023-03-11T04:53:29;5.77;;;3.73;;
11054;SDS011;5580;50.106;8.702;2023-03-11T04:55:55;5.73;;;3.83;;
11054;SDS011;5580;50.106;8.702;2023-03-11T04:58:21;7.73;;;4.00;;
11054;SDS011;5580;50.106;8.702;2023-03-11T05:00:46;7.77;;;3.83;;
11054;SDS011;5580;50.106;8.702;2023-03-11T05:03:12;10.73;;;4.60;;
11054;SDS011;5580;50.106;8.702;2023-03-11T05:05:38;6.90;;;4.20;;
11054;SDS011;5580;50.106;8.702;2023-03-11T05:08:03;7.47;;;3.93;;
11054;SDS011;5580;50.106;8.702;2023-03-11T05:10:29;11.10;;;4.07;;
11054;SDS011;5580;50.106;8.702;2023-03-11T05:12:54;8.10;;;4.17;;
11054;SDS011;5580;50.106;8.702;2023-03-11T05:15:21;7.30;;;4.10;;
11054;SDS011;5580;50.106;8.702;2023-03-11T05:17:46;9.67;;;4.07;;
11054;SDS011;5580;50.106;8.702;2023-03-11T05:20:12;6.93;;;3.83;;
11054;SDS011;5580;50.106;8.702;2023-03-11T05:22:38;10.10;;;4.10;;
11054;SDS011;5580;50.106;8.702;2023-03-11T05:25:04;8.33;;;4.20;;
11054;SDS011;5580;50.106;8.702;2023-03-11T05:27:30;8.33;;;4.20;;
11054;SDS011;5580;50.106;8.702;2023-03-11T05:29:56;10.63;;;4.40;;
11054;SDS011;5580;50.106;8.702;2023-03-11T05:32:22;6.67;;;4.33;;
11054;SDS011;5580;50.106;8.702;2023-03-11T05:34:47;9.17;;;4.40;;
11054;SDS011;5580;50.106;8.702;2023-03-11T05:37:13;5.63;;;3.83;;
11054;SDS011;5580;50.106;8.702;2023-03-11T05:39:39;8.13;;;4.50;;
11054;SDS011;5580;50.106;8.702;2023-03-11T05:42:05;8.70;;;4.27;;
11054;SDS011;5580;50.106;8.702;2023-03-11T05:44:31;8.20;;;4.10;;
11054;SDS011;5580;50.106;8.702;2023-03-11T05:46:57;8.13;;;4.17;;
11054;SDS011;5580;50.106;8.702;2023-03-11T05:49:23;6.57;;;3.70;;
11054;SDS011;5580;50.106;8.702;2023-03-11T05:51:49;9.83;;;4.40;;
11054;SDS011;5580;50.106;8.702;2023-03-11T05:54:15;8.70;;;4.40;;
11054;SDS011;5580;50.106;8.702;2023-03-11T05:56:42;7.27;;;4.23;;
11054;SDS011;5580;50.106;8.702;2023-03-11T05:59:08;7.73;;;4.20;;
11054;SDS011;5580;50.106;8.702;2023-03-11T06:01:34;10.17;;;4.37;;
11054;SDS011;5580;50.106;8.702;2023-03-11T06:04:00;10.33;;;4.30;;
11054;SDS011;5580;50.106;8.702;2023-03-11T06:06:26;8.67;;;4.50;;
11054;SDS011;5580;50.106;8.702;2023-03-11T06:08:52;16.93;;;7.83;;
11054;SDS011;5580;50.106;8.702;2023-03-11T06:11:18;24.27;;;13.20;;
11054;SDS011;5580;50.106;8.702;2023-03-11T06:13:44;15.30;;;8.20;;
11054;SDS011;5580;50.106;8.702;2023-03-11T06:16:10;10.23;;;5.10;;
11054;SDS011;5580;50.106;8.702;2023-03-11T06:18:36;7.77;;;4.37;;
11054;SDS011;5580;50.106;8.702;2023-03-11T06:21:02;11.03;;;4.83;;
11054;SDS011;5580;50.106;8.702;2023-03-11T06:23:28;8.43;;;4.80;;
11054;SDS011;5580;50.106;8.702;2023-03-11T06:25:58;6.97;;;4.00;;
11054;SDS011;5580;50.106;8.702;2023-03-11T06:28:28;10.20;;;4.33;;
11054;SDS011;5580;50.106;8.702;2023-03-11T06:30:54;12.03;;;4.37;;
11054;SDS011;5580;50.106;8.702;2023-03-11T06:33:25;7.80;;;4.00;;
11054;SDS011;5580;50.106;8.702;2023-03-11T06:35:57;13.13;;;4.10;;
11054;SDS011;5580;50.106;8.702;2023-03-11T06:38:24;12.20;;;4.80;;
11054;SDS011;5580;50.106;8.702;2023-03-11T06:40:50;9.67;;;4.20;;
11054;SDS011;5580;50.106;8.702;2023-03-11T06:43:17;11.97;;;4.07;;
11054;SDS011;5580;50.106;8.702;2023-03-11T06:45:42;7.73;;;3.73;;
11054;SDS011;5580;50.106;8.702;2023-03-11T06:48:09;14.20;;;4.17;;
11054;SDS011;5580;50.106;8.702;2023-03-11T06:50:34;9.67;;;4.40;;
11054;SDS011;5580;50.106;8.702;2023-03-11T06:53:00;11.67;;;4.57;;
11054;SDS011;5580;50.106;8.702;2023-03-11T06:55:26;13.70;;;4.47;;
11054;SDS011;5580;50.106;8.702;2023-03-11T06:57:52;7.87;;;4.27;;
11054;SDS011;5580;50.106;8.702;2023-03-11T07:00:18;8.53;;;4.10;;
11054;SDS011;5580;50.106;8.702;2023-03-11T07:02:43;12.17;;;4.47;;
11054;SDS011;5580;50.106;8.702;2023-03-11T07:05:09;11.07;;;4.20;;
11054;SDS011;5580;50.106;8.702;2023-03-11T07:07:36;10.77;;;4.20;;
11054;SDS011;5580;50.106;8.702;2023-03-11T07:10:02;9.73;;;4.30;;
11054;SDS011;5580;50.106;8.702;2023-03-11T07:12:28;9.20;;;4.33;;
11054;SDS011;5580;50.106;8.702;2023-03-11T07:14:56;10.37;;;4.73;;
11054;SDS011;5580;50.106;8.702;2023-03-11T07:17:23;9.17;;;3.93;;
11054;SDS011;5580;50.106;8.702;2023-03-11T07:19:49;14.43;;;4.30;;
11054;SDS011;5580;50.106;8.702;2023-03-11T07:22:15;10.70;;;4.30;;
11054;SDS011;5580;50.106;8.702;2023-03-11T07:24:40;8.93;;;4.00;;
11054;SDS011;5580;50.106;8.702;2023-03-11T07:27:10;11.43;;;4.63;;
11054;SDS011;5580;50.106;8.702;2023-03-11T07:29:35;9.20;;;4.10;;
11054;SDS011;5580;50.106;8.702;2023-03-11T07:32:01;7.07;;;4.20;;
11054;SDS011;5580;50.106;8.702;2023-03-11T07:34:26;11.10;;;4.30;;
11054;SDS011;5580;50.106;8.702;2023-03-11T07:36:52;8.20;;;3.70;;
11054;SDS011;5580;50.106;8.702;2023-03-11T07:39:18;9.57;;;3.83;;
11054;SDS011;5580;50.106;8.702;2023-03-11T07:41:44;7.43;;;3.80;;
11054;SDS011;5580;50.106;8.702;2023-03-11T07:44:13;5.60;;;3.73;;
11054;SDS011;5580;50.106;8.702;2023-03-11T07:46:39;10.63;;;4.00;;
11054;SDS011;5580;50.106;8.702;2023-03-11T07:49:05;11.30;;;4.10;;
11054;SDS011;5580;50.106;8.702;2023-03-11T07:51:32;7.87;;;3.90;;
11054;SDS011;5580;50.106;8.702;2023-03-11T07:53:59;9.70;;;3.80;;
11054;SDS011;5580;50.106;8.702;2023-03-11T07:56:27;9.43;;;3.73;;
11054;SDS011;5580;50.106;8.702;2023-03-11T07:58:56;9.53;;;3.67;;
11054;SDS011;5580;50.106;8.702;2023-03-11T08:01:24;11.00;;;3.80;;
11054;SDS011;5580;50.106;8.702;2023-03-11T08:03:52;8.37;;;3.90;;
11054;SDS011;5580;50.106;8.702;2023-03-11T08:06:26;8.47;;;3.63;;
11054;SDS011;5580;50.106;8.702;2023-03-11T08:08:55;10.33;;;4.70;;
11054;SDS011;5580;50.106;8.702;2023-03-11T08:11:22;8.90;;;4.00;;
11054;SDS011;5580;50.106;8.702;2023-03-11T08:13:48;8.20;;;3.80;;
11054;SDS011;5580;50.106;8.702;2023-03-11T08:16:15;10.63;;;4.10;;
11054;SDS011;5580;50.106;8.702;2023-03-11T08:18:42;8.53;;;3.80;;
11054;SDS011;5580;50.106;8.702;2023-03-11T08:21:11;12.23;;;4.07;;
11054;SDS011;5580;50.106;8.702;2023-03-11T08:23:38;10.50;;;3.83;;
11054;SDS011;5580;50.106;8.702;2023-03-11T08:26:04;9.57;;;4.17;;
11054;SDS011;5580;50.106;8.702;2023-03-11T08:28:32;7.03;;;3.63;;
11054;SDS011;5580;50.106;8.702;2023-03-11T08:30:58;7.90;;;3.43;;
11054;SDS011;5580;50.106;8.702;2023-03-11T08:33:24;8.53;;;3.80;;
11054;SDS011;5580;50.106;8.702;2023-03-11T08:35:49;7.93;;;3.93;;
11054;SDS011;5580;50.106;8.702;2023-03-11T08:38:15;8.33;;;4.03;;
11054;SDS011;5580;50.106;8.702;2023-03-11T08:40:40;9.27;;;3.70;;
11054;SDS011;5580;50.106;8.702;2023-03-11T08:43:06;7.33;;;4.10;;
11054;SDS011;5580;50.106;8.702;2023-03-11T08:45:32;8.53;;;3.93;;
11054;SDS011;5580;50.106;8.702;2023-03-11T08:47:58;11.73;;;3.70;;
11054;SDS011;5580;50.106;8.702;2023-03-11T08:50:23;7.80;;;3.90;;
11054;SDS011;5580;50.106;8.702;2023-03-11T08:52:49;7.40;;;4.00;;
11054;SDS011;5580;50.106;8.702;2023-03-11T08:55:16;11.33;;;4.10;;
11054;SDS011;5580;50.106;8.702;2023-03-11T08:57:48;7.53;;;4.23;;
11054;SDS011;5580;50.106;8.702;2023-03-11T09:00:15;7.37;;;3.83;;
11054;SDS011;5580;50.106;8.702;2023-03-11T09:02:41;7.33;;;3.80;;
11054;SDS011;5580;50.106;8.702;2023-03-11T09:05:07;6.87;;;3.83;;
11054;SDS011;5580;50.106;8.702;2023-03-11T09:07:33;8.00;;;3.90;;
11054;SDS011;5580;50.106;8.702;2023-03-11T09:09:59;5.17;;;3.53;;
11054;SDS011;5580;50.106;8.702;2023-03-11T09:12:24;9.03;;;3.87;;
11054;SDS011;5580;50.106;8.702;2023-03-11T09:14:50;8.50;;;3.93;;
11054;SDS011;5580;50.106;8.702;2023-03-11T09:17:15;9.40;;;4.10;;
11054;SDS011;5580;50.106;8.702;2023-03-11T09:19:41;6.87;;;4.00;;
11054;SDS011;5580;50.106;8.702;2023-03-11T09:22:06;6.03;;;4.10;;
11054;SDS011;5580;50.106;8.702;2023-03-11T09:24:33;8.00;;;4.23;;
11054;SDS011;5580;50.106;8.702;2023-03-11T09:26:59;9.90;;;4.17;;
11054;SDS011;5580;50.106;8.702;2023-03-11T09:29:25;8.37;;;3.97;;
11054;SDS011;5580;50.106;8.702;2023-03-11T09:31:50;5.63;;;3.40;;
11054;SDS011;5580;50.106;8.702;2023-03-11T09:34:16;7.53;;;3.40;;
11054;SDS011;5580;50.106;8.702;2023-03-11T09:36:42;6.17;;;3.50;;
11054;SDS011;5580;50.106;8.702;2023-03-11T09:39:08;5.47;;;3.60;;
11054;SDS011;5580;50.106;8.702;2023-03-11T09:41:37;5.10;;;3.70;;
11054;SDS011;5580;50.106;8.702;2023-03-11T09:47:54;8.37;;;3.40;;
11054;SDS011;5580;50.106;8.702;2023-03-11T09:50:13;7.13;;;3.30;;
11054;SDS011;5580;50.106;8.702;2023-03-11T09:55:32;7.53;;;3.40;;
11054;SDS011;5580;50.106;8.702;2023-03-11T09:58:11;6.40;;;3.70;;
11054;SDS011;5580;50.106;8.702;2023-03-11T10:00:40;5.70;;;3.43;;
11054;SDS011;5580;50.106;8.702;2023-03-11T10:03:10;9.00;;;3.30;;
11054;SDS011;5580;50.106;8.702;2023-03-11T10:05:53;5.50;;;3.13;;
11054;SDS011;5580;50.106;8.702;2023-03-11T10:08:30;6.00;;;3.37;;
11054;SDS011;5580;50.106;8.702;2023-03-11T10:19:28;8.70;;;3.90;;
11054;SDS011;5580;50.106;8.702;2023-03-11T10:25:15;5.20;;;3.10;;
11054;SDS011;5580;50.106;8.702;2023-03-11T10:27:59;6.13;;;3.20;;
11054;SDS011;5580;50.106;8.702;2023-03-11T10:30:32;4.50;;;2.90;;
11054;SDS011;5580;50.106;8.702;2023-03-11T10:35:40;5.30;;;2.80;;
11054;SDS011;5580;50.106;8.702;2023-03-11T10:40:49;5.13;;;2.77;;
11054;SDS011;5580;50.106;8.702;2023-03-11T10:43:26;8.27;;;3.10;;
11054;SDS011;5580;50.106;8.702;2023-03-11T10:45:55;6.07;;;3.30;;
11054;SDS011;5580;50.106;8.702;2023-03-11T10:48:23;7.07;;;3.07;;
11054;SDS011;5580;50.106;8.702;2023-03-11T10:53:27;5.43;;;2.50;;
11054;SDS011;5580;50.106;8.702;2023-03-11T10:55:54;8.13;;;3.30;;
11054;SDS011;5580;50.106;8.702;2023-03-11T10:58:22;9.40;;;3.30;;
11054;SDS011;5580;50.106;8.702;2023-03-11T11:01:03;4.43;;;3.17;;
11054;SDS011;5580;50.106;8.702;2023-03-11T11:03:37;8.17;;;2.93;;
11054;SDS011;5580;50.106;8.702;2023-03-11T11:06:15;7.53;;;3.00;;
11054;SDS011;5580;50.106;8.702;2023-03-11T11:08:42;4.60;;;2.87;;
11054;SDS011;5580;50.106;8.702;2023-03-11T11:11:20;6.67;;;3.17;;
11054;SDS011;5580;50.106;8.702;2023-03-11T11:13:57;4.63;;;2.90;;
11054;SDS011;5580;50.106;8.702;2023-03-11T11:16:24;5.77;;;2.90;;
11054;SDS011;5580;50.106;8.702;2023-03-11T11:18:54;9.07;;;3.43;;
11054;SDS011;5580;50.106;8.702;2023-03-11T11:21:55;5.13;;;2.90;;
11054;SDS011;5580;50.106;8.702;2023-03-11T11:24:19;5.63;;;2.90;;
11054;SDS011;5580;50.106;8.702;2023-03-11T11:29:48;6.47;;;3.60;;
11054;SDS011;5580;50.106;8.702;2023-03-11T11:32:32;10.33;;;3.60;;
11054;SDS011;5580;50.106;8.702;2023-03-11T11:34:59;6.43;;;3.47;;
11054;SDS011;5580;50.106;8.702;2023-03-11T11:37:28;5.73;;;3.20;;
11054;SDS011;5580;50.106;8.702;2023-03-11T11:40:41;6.23;;;3.43;;
11054;SDS011;5580;50.106;8.702;2023-03-11T11:45:31;5.97;;;3.43;;
11054;SDS011;5580;50.106;8.702;2023-03-11T11:50:42;5.57;;;3.43;;
11054;SDS011;5580;50.106;8.702;2023-03-11T11:55:39;9.37;;;3.30;;
11054;SDS011;5580;50.106;8.702;2023-03-11T11:58:10;10.00;;;3.90;;
11054;SDS011;5580;50.106;8.702;2023-03-11T12:00:41;6.40;;;3.50;;
11054;SDS011;5580;50.106;8.702;2023-03-11T12:08:22;5.73;;;3.03;;
11054;SDS011;5580;50.106;8.702;2023-03-11T12:11:01;6.10;;;3.13;;
11054;SDS011;5580;50.106;8.702;2023-03-11T12:16:12;8.37;;;3.20;;
11054;SDS011;5580;50.106;8.702;2023-03-11T12:18:48;5.30;;;3.13;;
11054;SDS011;5580;50.106;8.702;2023-03-11T12:21:28;4.77;;;2.67;;
11054;SDS011;5580;50.106;8.702;2023-03-11T12:24:07;5.10;;;3.10;;
11054;SDS011;5580;50.106;8.702;2023-03-11T12:26:37;7.33;;;2.80;;
11054;SDS011;5580;50.106;8.702;2023-03-11T12:31:44;6.43;;;3.20;;
11054;SDS011;5580;50.106;8.702;2023-03-11T12:34:11;4.23;;;3.00;;
11054;SDS011;5580;50.106;8.702;2023-03-11T12:36:42;8.47;;;3.40;;
11054;SDS011;5580;50.106;8.702;2023-03-11T12:44:35;8.67;;;3.43;;
11054;SDS011;5580;50.106;8.702;2023-03-11T12:47:10;4.33;;;2.87;;
11054;SDS011;5580;50.106;8.702;2023-03-11T12:49:43;5.77;;;3.10;;
11054;SDS011;5580;50.106;8.702;2023-03-11T12:54:37;4.40;;;3.00;;
11054;SDS011;5580;50.106;8.702;2023-03-11T12:57:22;6.27;;;3.13;;
11054;SDS011;5580;50.106;8.702;2023-03-11T13:16:46;6.83;;;3.43;;
11054;SDS011;5580;50.106;8.702;2023-03-11T13:21:51;6.03;;;3.10;;
11054;SDS011;5580;50.106;8.702;2023-03-11T13:35:59;4.87;;;2.90;;
11054;SDS011;5580;50.106;8.702;2023-03-11T13:41:19;4.83;;;3.07;;
11054;SDS011;5580;50.106;8.702;2023-03-11T13:43:51;6.50;;;3.00;;
11054;SDS011;5580;50.106;8.702;2023-03-11T13:46:29;5.30;;;3.10;;
11054;SDS011;5580;50.106;8.702;2023-03-11T13:49:04;5.37;;;3.03;;
11054;SDS011;5580;50.106;8.702;2023-03-11T13:51:44;5.70;;;2.93;;
11054;SDS011;5580;50.106;8.702;2023-03-11T13:56:44;6.67;;;2.90;;
11054;SDS011;5580;50.106;8.702;2023-03-11T13:59:26;5.30;;;2.90;;
11054;SDS011;5580;50.106;8.702;2023-03-11T14:01:58;6.03;;;2.90;;
11054;SDS011;5580;50.106;8.702;2023-03-11T14:04:47;5.50;;;2.90;;
11054;SDS011;5580;50.106;8.702;2023-03-11T14:12:50;6.23;;;3.20;;
11054;SDS011;5580;50.106;8.702;2023-03-11T14:15:23;7.50;;;3.10;;
11054;SDS011;5580;50.106;8.702;2023-03-11T14:17:51;6.13;;;2.90;;
11054;SDS011;5580;50.106;8.702;2023-03-11T14:20:21;5.77;;;2.63;;
11054;SDS011;5580;50.106;8.702;2023-03-11T14:22:52;7.87;;;3.03;;
11054;SDS011;5580;50.106;8.702;2023-03-11T14:25:26;5.97;;;3.10;;
11054;SDS011;5580;50.106;8.702;2023-03-11T14:27:55;5.53;;;2.90;;
11054;SDS011;5580;50.106;8.702;2023-03-11T14:30:30;4.00;;;2.87;;
11054;SDS011;5580;50.106;8.702;2023-03-11T14:33:05;8.63;;;3.07;;
11054;SDS011;5580;50.106;8.702;2023-03-11T14:35:54;6.17;;;3.07;;
11054;SDS011;5580;50.106;8.702;2023-03-11T14:38:23;4.50;;;2.87;;
11054;SDS011;5580;50.106;8.702;2023-03-11T14:40:52;7.00;;;2.97;;
11054;SDS011;5580;50.106;8.702;2023-03-11T14:43:24;4.17;;;2.77;;
11054;SDS011;5580;50.106;8.702;2023-03-11T14:46:03;5.33;;;3.00;;
11054;SDS011;5580;50.106;8.702;2023-03-11T14:48:35;4.67;;;2.80;;
11054;SDS011;5580;50.106;8.702;2023-03-11T14:51:03;9.80;;;3.17;;
11054;SDS011;5580;50.106;8.702;2023-03-11T14:53:34;6.07;;;2.97;;
11054;SDS011;5580;50.106;8.702;2023-03-11T14:56:15;7.20;;;2.73;;
11054;SDS011;5580;50.106;8.702;2023-03-11T14:58:59;3.43;;;2.63;;
11054;SDS011;5580;50.106;8.702;2023-03-11T15:01:34;4.63;;;2.40;;
11054;SDS011;5580;50.106;8.702;2023-03-11T15:04:13;6.60;;;3.10;;
11054;SDS011;5580;50.106;8.702;2023-03-11T15:06:57;4.27;;;2.77;;
11054;SDS011;5580;50.106;8.702;2023-03-11T15:09:24;5.20;;;2.97;;
11054;SDS011;5580;50.106;8.702;2023-03-11T15:11:52;5.37;;;3.07;;
11054;SDS011;5580;50.106;8.702;2023-03-11T15:14:25;9.00;;;3.27;;
11054;SDS011;5580;50.106;8.702;2023-03-11T15:19:43;6.63;;;2.67;;
11054;SDS011;5580;50.106;8.702;2023-03-11T15:22:28;6.00;;;2.90;;
11054;SDS011;5580;50.106;8.702;2023-03-11T15:25:15;3.83;;;2.80;;
11054;SDS011;5580;50.106;8.702;2023-03-11T15:27:42;6.60;;;3.27;;
11054;SDS011;5580;50.106;8.702;2023-03-11T15:30:22;4.63;;;2.80;;
11054;SDS011;5580;50.106;8.702;2023-03-11T15:32:49;5.63;;;2.90;;
11054;SDS011;5580;50.106;8.702;2023-03-11T15:35:20;4.30;;;2.37;;
11054;SDS011;5580;50.106;8.702;2023-03-11T15:37:50;4.17;;;2.97;;
11054;SDS011;5580;50.106;8.702;2023-03-11T15:40:58;6.70;;;3.20;;
11054;SDS011;5580;50.106;8.702;2023-03-11T15:43:32;3.90;;;2.73;;
11054;SDS011;5580;50.106;8.702;2023-03-11T15:46:11;5.97;;;2.87;;
11054;SDS011;5580;50.106;8.702;2023-03-11T15:48:37;3.40;;;2.70;;
11054;SDS011;5580;50.106;8.702;2023-03-11T15:51:03;7.00;;;3.07;;
11054;SDS011;5580;50.106;8.702;2023-03-11T15:53:29;3.93;;;2.80;;
11054;SDS011;5580;50.106;8.702;2023-03-11T15:55:59;4.27;;;2.50;;
11054;SDS011;5580;50.106;8.702;2023-03-11T15:58:34;6.37;;;3.10;;
11054;SDS011;5580;50.106;8.702;2023-03-11T16:01:02;4.13;;;3.03;;
11054;SDS011;5580;50.106;8.702;2023-03-11T16:03:28;6.57;;;3.07;;
11054;SDS011;5580;50.106;8.702;2023-03-11T16:05:53;5.37;;;2.93;;
11054;SDS011;5580;50.106;8.702;2023-03-11T16:08:19;6.93;;;2.83;;
11054;SDS011;5580;50.106;8.702;2023-03-11T16:10:44;5.07;;;2.70;;
11054;SDS011;5580;50.106;8.702;2023-03-11T16:13:11;6.77;;;2.97;;
11054;SDS011;5580;50.106;8.702;2023-03-11T16:15:38;5.10;;;2.80;;
11054;SDS011;5580;50.106;8.702;2023-03-11T16:18:04;6.33;;;2.77;;
11054;SDS011;5580;50.106;8.702;2023-03-11T16:20:39;7.20;;;3.10;;
11054;SDS011;5580;50.106;8.702;2023-03-11T16:23:06;6.10;;;3.20;;
11054;SDS011;5580;50.106;8.702;2023-03-11T16:25:56;4.13;;;2.77;;
11054;SDS011;5580;50.106;8.702;2023-03-11T16:28:24;3.70;;;2.80;;
11054;SDS011;5580;50.106;8.702;2023-03-11T16:30:50;6.83;;;2.90;;
11054;SDS011;5580;50.106;8.702;2023-03-11T16:33:16;4.10;;;3.10;;
11054;SDS011;5580;50.106;8.702;2023-03-11T16:35:42;5.33;;;3.30;;
11054;SDS011;5580;50.106;8.702;2023-03-11T16:38:08;6.87;;;2.90;;
11054;SDS011;5580;50.106;8.702;2023-03-11T16:40:33;5.03;;;2.70;;
11054;SDS011;5580;50.106;8.702;2023-03-11T16:43:01;6.20;;;2.90;;
11054;SDS011;5580;50.106;8.702;2023-03-11T16:45:31;3.37;;;3.07;;
11054;SDS011;5580;50.106;8.702;2023-03-11T16:47:57;6.07;;;2.67;;
11054;SDS011;5580;50.106;8.702;2023-03-11T16:50:22;5.67;;;3.43;;
11054;SDS011;5580;50.106;8.702;2023-03-11T16:52:49;3.47;;;2.47;;
11054;SDS011;5580;50.106;8.702;2023-03-11T16:55:15;5.27;;;2.80;;
11054;SDS011;5580;50.106;8.702;2023-03-11T16:57:41;4.80;;;2.57;;